Time;durP1;ratioP1;P1;durP2;ratioP2;P2;SDS_P1;SDS_P2;PMS_P1;PMS_P2;Temp;Humidity;BMP_temperature;BMP_pressure;BME280_temperature;BME280_humidity;BME280_pressure;Samples;Min_cycle;Max_cycle;Signal;HPM_P1;HPM_P2
2022/06/25 00:01:23;;;;;;;7.20;3.40;;;;;;;23.44;64.03;100382.91;5044960;28;20071;-68
2022/06/25 00:03:49;;;;;;;6.03;3.15;;;;;;;23.21;65.35;100388.94;5043638;28;20037;-68
2022/06/25 00:06:16;;;;;;;5.70;3.50;;;;;;;23.17;64.97;100398.28;5039234;28;20107;-68
2022/06/25 00:08:44;;;;;;;6.85;3.85;;;;;;;23.24;64.77;100399.28;5024617;28;20648;-67
2022/06/25 00:12:31;;;;;;;6.65;3.10;;;;;;;23.34;64.12;100398.28;5024202;28;20515;-67
2022/06/25 00:14:02;;;;;;;6.88;3.10;;;;;;;23.53;63.55;100406.00;5024405;28;20038;-67
2022/06/25 00:16:29;;;;;;;5.70;3.15;;;;;;;23.41;64.29;100405.47;5025310;28;20069;-67
2022/06/25 00:18:55;;;;;;;7.68;3.45;;;;;;;23.47;63.50;100409.31;5023842;28;20486;-68
2022/06/25 00:21:22;;;;;;;10.77;3.35;;;;;;;23.67;62.81;100403.44;5025775;28;20042;-68
2022/06/25 00:23:48;;;;;;;6.93;3.47;;;;;;;23.54;63.24;100399.66;5024967;28;20049;-68
2022/06/25 00:26:16;;;;;;;7.85;3.20;;;;;;;23.36;63.98;100394.44;5024011;28;20080;-68
2022/06/25 00:28:42;;;;;;;7.63;3.33;;;;;;;23.58;63.14;100400.94;5028547;28;20065;-68
2022/06/25 00:31:08;;;;;;;7.25;3.10;;;;;;;23.54;63.40;100388.94;5029122;28;20068;-68
2022/06/25 00:33:34;;;;;;;4.40;3.42;;;;;;;23.45;63.47;100389.94;5023455;28;20498;-68
2022/06/25 00:36:01;;;;;;;8.63;3.78;;;;;;;23.35;64.17;100400.81;5025201;28;20061;-67
2022/06/25 00:38:27;;;;;;;7.63;3.35;;;;;;;23.11;64.96;100390.97;5025021;28;20057;-67
2022/06/25 00:40:54;;;;;;;7.13;3.30;;;;;;;23.34;64.33;100399.13;5023261;28;20046;-67
2022/06/25 00:43:21;;;;;;;8.82;3.53;;;;;;;23.43;64.02;100400.81;5026191;28;20045;-67
2022/06/25 00:45:48;;;;;;;11.05;3.90;;;;;;;23.24;64.86;100393.94;5024234;28;20077;-67
2022/06/25 00:48:14;;;;;;;7.50;3.88;;;;;;;23.55;63.72;100401.28;5023327;28;20422;-67
2022/06/25 00:50:40;;;;;;;12.68;3.80;;;;;;;23.36;64.23;100406.97;5024323;28;20477;-67
2022/06/25 00:53:08;;;;;;;9.70;4.20;;;;;;;23.34;64.32;100399.13;5020984;28;20045;-67
2022/06/25 00:55:38;;;;;;;5.57;3.65;;;;;;;23.46;64.04;100413.88;5024848;28;20095;-67
2022/06/25 00:58:11;;;;;;;9.30;3.88;;;;;;;23.57;63.58;100405.50;5037786;28;20049;-67
2022/06/25 01:00:39;;;;;;;6.28;3.60;;;;;;;23.66;63.17;100407.13;5030217;28;20041;-67
2022/06/25 01:03:06;;;;;;;9.30;3.83;;;;;;;23.76;62.66;100415.78;5024412;28;20045;-67
2022/06/25 01:05:32;;;;;;;7.43;3.63;;;;;;;23.41;64.29;100416.19;5022297;28;20073;-67
2022/06/25 01:07:59;;;;;;;5.53;3.78;;;;;;;23.58;63.58;100422.34;5026595;28;20041;-68
2022/06/25 01:10:25;;;;;;;6.35;3.97;;;;;;;23.70;63.25;100423.66;5022797;28;20123;-68
2022/06/25 01:12:51;;;;;;;10.77;4.20;;;;;;;23.50;64.24;100419.72;5022453;28;20049;-68
2022/06/25 01:15:19;;;;;;;8.05;4.15;;;;;;;23.51;63.80;100418.69;5024794;28;20045;-68
2022/06/25 01:17:48;;;;;;;11.30;4.35;;;;;;;23.54;64.08;100416.50;5024172;28;20099;-68
2022/06/25 01:20:16;;;;;;;10.40;4.47;;;;;;;23.37;64.76;100424.69;5023557;28;20045;-67
2022/06/25 01:22:44;;;;;;;6.68;4.10;;;;;;;23.45;64.43;100430.09;5023696;28;20046;-67
2022/06/25 01:25:11;;;;;;;13.32;4.53;;;;;;;23.58;64.06;100425.03;5025292;28;20084;-67
2022/06/25 01:27:38;;;;;;;9.82;4.13;;;;;;;23.29;65.26;100428.22;5030144;28;20134;-68
2022/06/25 01:30:07;;;;;;;6.55;4.10;;;;;;;23.19;65.48;100438.25;5038626;28;20469;-68
2022/06/25 01:32:33;;;;;;;9.63;3.92;;;;;;;23.03;66.48;100425.72;5033171;28;20046;-68
2022/06/25 01:35:00;;;;;;;7.22;4.10;;;;;;;23.14;65.70;100428.06;5027161;28;20452;-68
2022/06/25 01:37:26;;;;;;;7.75;4.30;;;;;;;23.01;66.30;100427.75;5028107;28;20045;-67
2022/06/25 01:39:56;;;;;;;7.05;4.78;;;;;;;23.12;65.92;100429.25;5024387;28;20049;-67
2022/06/25 01:45:03;;;;;;;6.53;4.20;;;;;;;22.83;67.26;100439.59;5018398;28;20052;-67
2022/06/25 01:47:29;;;;;;;6.80;4.00;;;;;;;22.84;66.93;100436.72;5027662;28;20460;-67
2022/06/25 01:49:56;;;;;;;7.63;4.38;;;;;;;22.90;67.08;100437.91;5026384;28;20052;-68
2022/06/25 01:52:22;;;;;;;6.75;4.55;;;;;;;23.02;66.56;100442.75;5026294;28;20416;-68
2022/06/25 01:54:48;;;;;;;10.35;4.53;;;;;;;23.04;66.62;100435.41;5028383;28;20076;-68
2022/06/25 01:57:16;;;;;;;7.57;4.40;;;;;;;23.16;65.90;100436.78;5036535;28;20061;-68
2022/06/25 01:59:42;;;;;;;10.98;4.88;;;;;;;23.06;66.31;100437.94;5036066;28;20075;-68
2022/06/25 02:02:09;;;;;;;8.65;4.47;;;;;;;23.00;66.60;100449.28;5031562;28;20073;-68
2022/06/25 02:04:35;;;;;;;6.57;4.60;;;;;;;23.11;66.37;100433.75;5026491;28;20513;-68
2022/06/25 02:07:02;;;;;;;6.25;4.65;;;;;;;23.10;66.56;100436.56;5026151;28;20042;-68
2022/06/25 02:09:28;;;;;;;9.65;4.70;;;;;;;23.18;65.80;100444.59;5027491;28;20053;-67
2022/06/25 02:11:54;;;;;;;7.63;4.25;;;;;;;23.21;65.90;100439.75;5029427;28;20069;-68
2022/06/25 02:14:22;;;;;;;10.35;4.60;;;;;;;23.28;65.33;100439.94;5020148;28;20119;-68
2022/06/25 02:16:48;;;;;;;10.00;4.72;;;;;;;23.32;65.23;100440.44;5019537;28;20496;-68
2022/06/25 02:19:15;;;;;;;6.75;4.30;;;;;;;23.18;65.83;100445.44;5025529;28;20041;-68
2022/06/25 02:21:41;;;;;;;7.32;4.07;;;;;;;23.22;65.60;100441.44;5027936;28;20045;-68
2022/06/25 02:24:07;;;;;;;11.77;4.80;;;;;;;22.91;66.94;100444.94;5047152;28;20099;-68
2022/06/25 02:26:34;;;;;;;8.38;4.63;;;;;;;23.25;65.39;100451.78;5045530;28;20114;-67
2022/06/25 02:29:00;;;;;;;6.55;4.05;;;;;;;23.00;66.53;100455.47;5037047;28;20048;-68
2022/06/25 02:31:27;;;;;;;6.07;4.00;;;;;;;23.18;65.78;100460.66;5046459;28;20048;-68
2022/06/25 02:33:54;;;;;;;7.82;4.25;;;;;;;23.20;65.65;100462.19;5047130;28;20501;-68
2022/06/25 02:36:20;;;;;;;6.53;3.90;;;;;;;23.24;65.56;100457.34;5044554;28;20049;-68
2022/06/25 02:38:47;;;;;;;8.23;4.47;;;;;;;23.30;65.56;100462.00;5027565;28;20061;-67
2022/06/25 02:41:13;;;;;;;4.55;4.10;;;;;;;22.78;67.42;100469.47;5027198;28;20045;-67
2022/06/25 02:43:40;;;;;;;5.25;4.35;;;;;;;23.03;66.54;100470.34;5027193;28;20096;-67
2022/06/25 02:46:06;;;;;;;6.22;4.00;;;;;;;23.14;65.68;100484.22;5025853;28;20087;-67
2022/06/25 02:48:34;;;;;;;9.75;4.53;;;;;;;23.14;65.67;100483.38;5026035;28;20084;-67
2022/06/25 02:51:00;;;;;;;7.03;4.10;;;;;;;23.21;65.85;100485.22;5028849;28;20413;-67
2022/06/25 02:53:27;;;;;;;8.20;4.03;;;;;;;23.11;65.53;100489.91;5026386;28;20049;-67
2022/06/25 02:58:56;;;;;;;9.25;4.40;;;;;;;23.55;64.04;100490.44;5027525;28;20088;-67
2022/06/25 03:01:23;;;;;;;7.97;4.45;;;;;;;23.66;63.89;100491.94;5044040;28;20128;-67
2022/06/25 03:03:51;;;;;;;7.97;3.72;;;;;;;23.21;65.29;100495.09;5028579;28;20072;-67
2022/06/25 03:06:18;;;;;;;9.18;4.60;;;;;;;23.37;64.68;100491.59;5025754;28;20065;-67
2022/06/25 03:08:45;;;;;;;8.70;4.15;;;;;;;23.38;64.54;100493.28;5026372;28;20103;-67
2022/06/25 03:11:11;;;;;;;6.55;4.68;;;;;;;23.33;64.68;100503.63;5022910;28;20096;-67
2022/06/25 03:13:38;;;;;;;5.88;3.97;;;;;;;23.08;65.54;100500.09;5025282;28;20248;-67
2022/06/25 03:16:05;;;;;;;9.55;4.40;;;;;;;23.10;65.70;100498.09;5026711;28;20053;-67
2022/06/25 03:18:32;;;;;;;5.82;4.00;;;;;;;23.22;64.85;100507.47;5024537;28;20050;-68
2022/06/25 03:21:00;;;;;;;7.18;4.32;;;;;;;23.21;64.89;100503.97;5025989;28;20115;-68
2022/06/25 03:23:27;;;;;;;10.43;4.03;;;;;;;23.08;65.25;100503.63;5025296;28;20410;-68
2022/06/25 03:25:54;;;;;;;8.40;4.60;;;;;;;22.79;66.72;100505.91;5024259;28;20045;-68
2022/06/25 03:28:20;;;;;;;7.32;4.60;;;;;;;23.03;65.69;100508.63;5025723;28;20050;-68
2022/06/25 03:30:47;;;;;;;7.93;4.55;;;;;;;23.17;65.38;100516.00;5026503;28;20130;-68
2022/06/25 03:33:14;;;;;;;8.55;4.55;;;;;;;23.28;64.56;100520.22;5023987;28;20038;-68
2022/06/25 03:35:41;;;;;;;8.90;4.20;;;;;;;23.39;64.22;100521.72;5025831;28;20468;-68
2022/06/25 03:38:09;;;;;;;8.35;4.28;;;;;;;23.21;65.15;100533.38;5025955;28;20099;-68
2022/06/25 03:40:35;;;;;;;9.77;4.80;;;;;;;22.49;67.97;100536.69;5022347;28;20091;-68
2022/06/25 03:43:02;;;;;;;6.22;4.40;;;;;;;21.97;70.45;100533.22;5024082;28;20103;-68
2022/06/25 03:45:28;;;;;;;9.18;4.20;;;;;;;22.40;68.60;100540.28;5025922;28;20103;-68
2022/06/25 03:47:54;;;;;;;7.47;4.00;;;;;;;22.76;67.22;100541.00;5022283;28;20095;-68
2022/06/25 03:50:22;;;;;;;11.02;5.00;;;;;;;22.18;69.26;100541.69;5026462;28;20067;-68
2022/06/25 03:52:50;;;;;;;7.18;5.32;;;;;;;22.24;69.20;100550.91;5025815;28;20065;-68
2022/06/25 03:55:18;;;;;;;6.07;4.85;;;;;;;22.25;69.52;100549.91;5025500;28;20045;-69
2022/06/25 03:57:44;;;;;;;8.30;4.90;;;;;;;22.69;68.02;100545.28;5024117;28;20406;-68
2022/06/25 04:00:12;;;;;;;10.15;4.47;;;;;;;23.09;66.51;100549.94;5025811;28;20644;-69
2022/06/25 04:02:39;;;;;;;11.30;4.90;;;;;;;23.13;66.18;100557.44;5024433;28;20128;-69
2022/06/25 04:05:06;;;;;;;8.27;4.40;;;;;;;23.15;66.10;100558.13;5024395;28;20438;-69
2022/06/25 04:07:32;;;;;;;7.32;5.32;;;;;;;23.28;65.80;100554.97;5024650;28;20061;-69
2022/06/25 04:09:59;;;;;;;9.45;4.60;;;;;;;23.38;65.47;100560.16;5024432;28;20038;-68
2022/06/25 04:12:27;;;;;;;8.75;4.18;;;;;;;23.34;65.34;100565.00;5026030;28;20054;-68
2022/06/25 04:14:53;;;;;;;8.18;4.38;;;;;;;22.95;67.26;100570.09;5026179;28;20045;-68
2022/06/25 04:17:20;;;;;;;13.52;4.68;;;;;;;22.80;67.55;100561.88;5024513;28;20049;-68
2022/06/25 04:19:46;;;;;;;6.45;4.47;;;;;;;22.75;68.05;100560.69;5023766;28;20045;-68
2022/06/25 04:22:13;;;;;;;7.47;4.38;;;;;;;23.14;66.54;100560.94;5025270;28;20045;-68
2022/06/25 04:24:42;;;;;;;7.68;4.78;;;;;;;23.21;65.78;100560.13;5024220;28;20095;-68
2022/06/25 04:29:03;;;;;;;8.27;5.00;;;;;;;22.95;66.85;100564.75;5025700;28;20129;-68
2022/06/25 04:29:55;;;;;;;10.73;5.70;;;;;;;22.74;67.47;100567.88;5023374;28;20128;-68
2022/06/25 04:32:21;;;;;;;8.10;5.20;;;;;;;22.72;67.83;100563.69;5026073;28;20095;-68
2022/06/25 04:34:48;;;;;;;6.30;5.15;;;;;;;22.85;67.05;100566.72;5025454;28;20531;-67
2022/06/25 04:37:14;;;;;;;9.50;4.97;;;;;;;23.18;65.99;100579.19;5024259;28;20072;-67
2022/06/25 04:39:40;;;;;;;8.65;5.07;;;;;;;23.36;65.76;100572.84;5023549;28;20072;-67
2022/06/25 04:42:07;;;;;;;12.18;5.32;;;;;;;23.06;66.61;100585.03;5024403;28;20045;-67
2022/06/25 04:44:33;;;;;;;10.75;5.20;;;;;;;23.41;65.19;100578.56;5023214;28;20053;-67
2022/06/25 04:47:01;;;;;;;7.78;5.20;;;;;;;23.27;65.73;100578.22;5025809;28;20050;-67
2022/06/25 04:49:27;;;;;;;7.38;5.05;;;;;;;23.41;65.18;100575.88;5024598;28;20418;-67
2022/06/25 04:51:53;;;;;;;7.05;4.68;;;;;;;23.23;66.10;100584.91;5023666;28;20041;-67
2022/06/25 04:54:19;;;;;;;7.53;4.93;;;;;;;23.34;65.67;100581.06;5025107;28;20082;-67
2022/06/25 04:56:46;;;;;;;9.73;5.68;;;;;;;22.99;67.46;100590.16;5024035;28;20045;-67
2022/06/25 04:59:12;;;;;;;11.65;5.22;;;;;;;23.09;67.05;100592.72;5023074;28;20041;-67
2022/06/25 05:01:38;;;;;;;6.72;4.90;;;;;;;23.01;66.65;100596.22;5025621;28;20107;-67
2022/06/25 05:04:06;;;;;;;6.60;5.45;;;;;;;22.82;67.67;100599.16;5023402;28;20094;-67
2022/06/25 05:06:32;;;;;;;8.07;5.20;;;;;;;23.26;65.98;100607.81;5024367;28;20054;-68
2022/06/25 05:08:59;;;;;;;10.52;5.53;;;;;;;23.14;66.42;100601.91;5023608;28;20049;-68
2022/06/25 05:11:25;;;;;;;10.25;6.00;;;;;;;23.22;66.25;100609.97;5023786;28;20049;-67
2022/06/25 05:13:51;;;;;;;6.85;4.95;;;;;;;23.25;66.18;100609.63;5025569;28;20042;-68
2022/06/25 05:16:18;;;;;;;11.73;5.60;;;;;;;23.43;65.51;100612.19;5024791;28;20073;-67
2022/06/25 05:18:46;;;;;;;7.10;5.38;;;;;;;23.44;65.55;100618.41;5022860;28;20482;-67
2022/06/25 05:21:13;;;;;;;7.60;5.57;;;;;;;23.41;66.64;100616.88;5024707;28;20053;-68
2022/06/25 05:23:40;;;;;;;9.15;5.60;;;;;;;23.62;65.88;100616.41;5025054;28;20050;-68
2022/06/25 05:26:06;;;;;;;8.95;5.75;;;;;;;23.54;65.87;100622.59;5024447;28;20111;-67
2022/06/25 05:28:32;;;;;;;8.68;5.68;;;;;;;23.71;64.94;100618.94;5025503;28;20060;-67
2022/06/25 05:30:59;;;;;;;10.18;5.97;;;;;;;23.47;66.99;100626.09;5021915;28;20042;-67
2022/06/25 05:33:25;;;;;;;8.10;5.15;;;;;;;23.55;66.87;100618.91;5025524;28;20516;-67
2022/06/25 05:35:51;;;;;;;9.45;5.68;;;;;;;23.71;66.69;100620.78;5025534;28;20045;-67
2022/06/25 05:38:19;;;;;;;8.15;5.30;;;;;;;24.05;65.43;100626.81;5023058;28;20041;-67
2022/06/25 05:40:46;;;;;;;10.45;5.93;;;;;;;24.26;65.17;100620.09;5023711;28;20045;-67
2022/06/25 05:43:13;;;;;;;5.85;4.65;;;;;;;24.35;64.54;100619.94;5024105;28;20513;-66
2022/06/25 05:45:39;;;;;;;8.02;4.88;;;;;;;24.65;63.43;100623.69;5023336;28;20073;-67
2022/06/25 05:48:06;;;;;;;7.78;4.53;;;;;;;24.98;62.01;100627.94;5023863;28;20123;-67
2022/06/25 05:50:33;;;;;;;5.97;4.13;;;;;;;25.17;62.06;100632.03;5024289;28;20041;-67
2022/06/25 05:52:59;;;;;;;7.20;4.55;;;;;;;25.22;61.03;100634.19;5022538;28;20042;-67
2022/06/25 05:55:27;;;;;;;6.22;4.35;;;;;;;25.43;60.57;100631.72;5023525;28;20050;-67
2022/06/25 05:57:53;;;;;;;5.22;4.10;;;;;;;25.38;60.45;100639.50;5024554;28;20054;-67
2022/06/25 06:00:20;;;;;;;4.93;4.13;;;;;;;25.41;59.28;100644.50;5022915;28;20563;-67
2022/06/25 06:02:46;;;;;;;5.65;3.70;;;;;;;25.38;59.98;100643.00;5024125;28;20077;-67
2022/06/25 06:05:13;;;;;;;7.28;3.90;;;;;;;25.68;58.72;100658.25;5024492;28;20095;-66
2022/06/25 06:07:39;;;;;;;4.65;3.40;;;;;;;25.86;57.31;100651.75;5022360;28;20053;-66
2022/06/25 06:10:07;;;;;;;6.38;3.65;;;;;;;25.76;58.05;100654.69;5022748;28;20045;-66
2022/06/25 06:12:35;;;;;;;6.38;3.63;;;;;;;25.89;58.37;100660.31;5026774;28;20041;-66
2022/06/25 06:15:01;;;;;;;7.28;4.07;;;;;;;26.22;57.78;100655.50;5025218;28;20049;-66
2022/06/25 06:17:27;;;;;;;4.85;3.88;;;;;;;26.32;57.14;100661.44;5026202;28;20618;-66
2022/06/25 06:19:54;;;;;;;7.03;4.03;;;;;;;26.99;55.11;100659.56;5026909;28;20053;-66
2022/06/25 06:22:21;;;;;;;4.72;3.65;;;;;;;27.51;54.18;100662.09;5025719;28;20041;-66
2022/06/25 06:24:47;;;;;;;7.45;4.40;;;;;;;27.18;53.44;100666.22;5035613;28;20052;-67
2022/06/25 06:27:13;;;;;;;4.95;3.90;;;;;;;27.24;54.30;100665.47;5047128;28;20044;-65
2022/06/25 06:29:41;;;;;;;5.50;3.95;;;;;;;26.65;55.99;100661.94;5045810;28;20049;-65
2022/06/25 06:32:08;;;;;;;5.28;4.60;;;;;;;26.98;54.53;100673.19;5048330;28;20045;-65
2022/06/25 06:34:35;;;;;;;6.05;3.95;;;;;;;27.55;54.45;100671.47;5035253;28;20050;-70
2022/06/25 06:37:01;;;;;;;7.63;4.65;;;;;;;28.39;51.95;100677.00;5026497;28;20509;-71
2022/06/25 06:39:27;;;;;;;6.05;3.75;;;;;;;28.93;49.66;100677.19;5027307;28;20067;-67
2022/06/25 06:41:54;;;;;;;10.88;4.13;;;;;;;28.47;50.84;100687.66;5038131;28;20099;-67
2022/06/25 06:44:20;;;;;;;7.55;3.70;;;;;;;28.15;50.61;100683.69;5026337;28;20106;-67
2022/06/25 06:46:48;;;;;;;5.70;3.42;;;;;;;27.86;51.81;100684.59;5025839;28;20107;-67
2022/06/25 06:49:14;;;;;;;7.22;3.95;;;;;;;27.63;52.45;100683.13;5025826;28;20098;-67
2022/06/25 06:51:40;;;;;;;6.50;3.85;;;;;;;27.53;52.08;100686.97;5025619;28;20045;-67
2022/06/25 06:54:07;;;;;;;5.60;4.15;;;;;;;27.29;52.34;100695.34;5025486;28;20426;-67
2022/06/25 06:56:33;;;;;;;19.52;4.15;;;;;;;27.35;52.53;100686.50;5018017;28;20049;-68
2022/06/25 06:59:00;;;;;;;7.00;3.67;;;;;;;27.34;52.79;100684.03;5025314;28;20063;-68
2022/06/25 07:01:27;;;;;;;6.72;3.55;;;;;;;27.57;52.48;100695.50;5027325;28;20042;-68
2022/06/25 07:03:55;;;;;;;5.07;3.60;;;;;;;27.54;53.53;100693.19;5025574;28;20038;-68
2022/06/25 07:06:21;;;;;;;5.65;3.67;;;;;;;28.13;52.49;100698.38;5026598;28;20041;-68
2022/06/25 07:08:48;;;;;;;5.07;3.35;;;;;;;28.39;52.05;100696.72;5024585;28;20120;-68
2022/06/25 07:11:30;;;;;;;4.72;3.42;;;;;;;28.18;51.38;100704.03;5025294;28;20579;-68
2022/06/25 07:13:57;;;;;;;4.40;3.50;;;;;;;28.54;50.29;100699.31;5027408;28;20041;-68
2022/06/25 07:16:24;;;;;;;5.38;3.60;;;;;;;28.54;50.41;100702.88;5025860;28;20061;-68
2022/06/25 07:18:51;;;;;;;5.45;3.85;;;;;;;28.62;49.01;100698.34;5025043;28;20045;-67
2022/06/25 07:21:19;;;;;;;6.40;3.67;;;;;;;28.58;50.05;100705.16;5026827;28;20055;-67
2022/06/25 07:23:46;;;;;;;6.90;3.78;;;;;;;29.24;48.58;100701.00;5036137;28;20051;-68
2022/06/25 07:26:12;;;;;;;5.65;3.50;;;;;;;29.69;48.19;100705.78;5045770;28;20072;-68
2022/06/25 07:28:38;;;;;;;7.35;3.85;;;;;;;30.31;46.56;100701.91;5046618;28;20045;-72
2022/06/25 07:31:05;;;;;;;10.68;4.07;;;;;;;30.25;46.07;100698.19;5045520;28;20098;-71
2022/06/25 07:33:31;;;;;;;4.60;3.28;;;;;;;30.60;45.37;100693.38;5037107;28;20050;-71
2022/06/25 07:35:57;;;;;;;9.55;4.22;;;;;;;30.79;45.29;100703.34;5025947;28;20103;-71
2022/06/25 07:38:25;;;;;;;9.05;4.10;;;;;;;31.17;44.29;100700.78;5025554;28;20050;-71
2022/06/25 07:40:52;;;;;;;9.48;4.30;;;;;;;31.59;42.09;100699.38;5025762;28;20046;-70
2022/06/25 07:43:18;;;;;;;7.50;3.92;;;;;;;31.92;42.97;100693.72;5032656;28;20049;-70
2022/06/25 07:45:45;;;;;;;7.13;3.70;;;;;;;32.05;41.47;100698.22;5045144;28;20463;-70
2022/06/25 07:48:11;;;;;;;6.35;3.30;;;;;;;32.02;42.16;100698.66;5030732;28;20088;-70
2022/06/25 07:53:21;;;;;;;6.90;3.53;;;;;;;33.03;40.23;100701.94;5026130;28;20052;-70
2022/06/25 07:55:50;;;;;;;5.32;3.33;;;;;;;33.44;38.88;100704.81;5024462;28;20049;-69
2022/06/25 07:58:17;;;;;;;6.28;3.65;;;;;;;33.35;37.24;100708.88;5024663;28;20045;-70
2022/06/25 08:00:43;;;;;;;10.88;3.63;;;;;;;33.41;38.64;100705.25;5024942;28;20057;-69
2022/06/25 08:03:09;;;;;;;5.40;3.95;;;;;;;33.02;37.28;100709.25;5024521;28;20046;-71
2022/06/25 08:05:35;;;;;;;6.55;4.13;;;;;;;32.89;37.67;100709.38;5026326;28;20049;-67
2022/06/25 08:08:02;;;;;;;6.93;3.83;;;;;;;33.47;37.70;100709.78;5026845;28;20506;-67
2022/06/25 08:10:28;;;;;;;4.07;3.05;;;;;;;33.54;36.69;100712.41;5023544;28;20049;-67
2022/06/25 08:12:56;;;;;;;7.15;3.92;;;;;;;33.80;35.90;100712.06;5027960;28;20110;-68
2022/06/25 08:15:22;;;;;;;5.40;3.28;;;;;;;32.85;37.92;100710.09;5045859;28;20099;-68
2022/06/25 08:17:48;;;;;;;3.83;2.58;;;;;;;32.76;37.97;100713.09;5031132;28;20080;-65
2022/06/25 08:20:15;;;;;;;5.55;3.80;;;;;;;32.53;36.91;100712.84;5023296;28;20099;-66
2022/06/25 08:22:41;;;;;;;6.07;3.75;;;;;;;32.63;37.84;100707.78;5026724;28;20072;-66
2022/06/25 08:25:09;;;;;;;3.97;2.92;;;;;;;33.53;35.57;100708.84;5043236;28;20098;-66
2022/06/25 08:27:35;;;;;;;6.78;3.03;;;;;;;33.60;36.50;100714.19;5040618;28;20409;-66
2022/06/25 08:30:03;;;;;;;4.05;2.83;;;;;;;33.44;35.30;100707.53;5025394;28;20104;-66
2022/06/25 08:32:29;;;;;;;4.60;2.90;;;;;;;33.65;35.64;100717.94;5023003;28;20099;-66
2022/06/25 08:34:56;;;;;;;6.43;3.58;;;;;;;33.67;35.23;100713.06;5024740;28;20155;-66
2022/06/25 08:37:22;;;;;;;6.53;3.20;;;;;;;33.98;34.48;100713.88;5025946;28;20065;-66
2022/06/25 08:39:48;;;;;;;4.68;3.10;;;;;;;33.32;34.72;100714.78;5022513;28;20078;-69
2022/06/25 08:42:15;;;;;;;3.70;2.90;;;;;;;33.48;36.96;100721.50;5024965;28;20050;-70
2022/06/25 08:44:41;;;;;;;3.90;3.03;;;;;;;33.58;36.95;100727.19;5040207;28;20091;-71
2022/06/25 08:47:10;;;;;;;5.97;3.30;;;;;;;33.50;35.45;100719.34;5037028;28;20069;-71
2022/06/25 08:49:37;;;;;;;4.70;3.20;;;;;;;33.63;36.37;100727.38;5027364;28;20100;-70
2022/06/25 08:52:07;;;;;;;6.80;2.90;;;;;;;33.06;36.49;100713.19;5028929;28;20041;-70
2022/06/25 08:54:34;;;;;;;6.07;3.03;;;;;;;32.82;36.45;100721.41;5023253;28;20053;-70
2022/06/25 08:57:01;;;;;;;5.75;3.25;;;;;;;33.14;36.74;100709.38;5024085;28;20065;-71
2022/06/25 08:59:29;;;;;;;6.18;3.63;;;;;;;33.58;37.63;100709.00;5024599;28;20664;-71
2022/06/25 09:01:55;;;;;;;9.10;2.90;;;;;;;33.97;36.22;100710.31;5022322;28;20041;-71
2022/06/25 09:04:23;;;;;;;8.95;3.08;;;;;;;34.49;36.22;100714.09;5038360;28;20683;-71
2022/06/25 09:06:50;;;;;;;4.38;2.75;;;;;;;34.93;33.49;100701.78;5044078;28;20069;-71
2022/06/25 09:09:17;;;;;;;4.18;2.75;;;;;;;35.48;32.29;100698.56;5030277;28;20084;-71
2022/06/25 09:11:56;;;;;;;3.70;2.92;;;;;;;35.14;33.35;100701.16;5023801;28;20076;-71
2022/06/25 09:14:24;;;;;;;7.10;3.58;;;;;;;34.85;32.21;100709.50;5023667;28;20041;-71
2022/06/25 09:16:58;;;;;;;6.72;3.05;;;;;;;34.72;34.02;100712.47;5023333;28;20060;-70
2022/06/25 09:19:31;;;;;;;3.92;2.65;;;;;;;33.83;33.96;100714.31;5024203;28;20584;-71
2022/06/25 09:21:58;;;;;;;5.53;2.95;;;;;;;34.18;33.51;100709.81;5023807;28;20045;-69
2022/06/25 09:24:24;;;;;;;3.28;2.50;;;;;;;34.45;32.70;100710.19;5033432;28;20075;-69
2022/06/25 09:26:52;;;;;;;5.15;3.00;;;;;;;34.31;33.48;100710.66;5044151;28;20045;-69
2022/06/25 09:29:18;;;;;;;8.63;3.70;;;;;;;34.39;43.17;100705.69;5042736;28;20087;-69
2022/06/25 09:31:45;;;;;;;5.97;3.03;;;;;;;34.60;38.95;100704.28;5044881;28;20083;-69
2022/06/25 09:34:11;;;;;;;2.72;2.38;;;;;;;34.78;34.84;100703.34;5028391;28;20111;-70
2022/06/25 09:36:39;;;;;;;4.05;2.60;;;;;;;34.98;36.18;100699.19;5038495;28;20051;-67
2022/06/25 09:39:05;;;;;;;7.10;3.05;;;;;;;34.89;32.97;100705.22;5028248;28;20073;-67
2022/06/25 09:41:50;;;;;;;5.35;2.95;;;;;;;35.30;31.54;100699.59;5025383;28;20575;-68
2022/06/25 09:44:18;;;;;;;5.15;2.70;;;;;;;35.82;30.94;100691.31;5023491;28;20049;-68
2022/06/25 09:46:54;;;;;;;4.07;2.78;;;;;;;35.86;32.71;100687.03;5027206;28;20079;-68
2022/06/25 09:49:24;;;;;;;3.67;2.90;;;;;;;35.55;30.97;100691.09;5027753;28;20080;-68
2022/06/25 09:52:00;;;;;;;4.25;2.70;;;;;;;35.23;32.86;100696.19;5027288;28;20046;-68
2022/06/25 09:54:26;;;;;;;6.50;3.13;;;;;;;35.24;29.90;100689.66;5024861;28;20051;-68
2022/06/25 09:56:54;;;;;;;6.35;2.90;;;;;;;35.67;31.07;100696.50;5025714;28;20050;-68
2022/06/25 09:59:22;;;;;;;4.30;2.78;;;;;;;35.68;32.74;100690.81;5022984;28;20666;-68
2022/06/25 10:01:48;;;;;;;4.72;2.80;;;;;;;35.97;33.87;100705.25;5016807;28;20046;-68
2022/06/25 10:04:15;;;;;;;6.43;3.00;;;;;;;35.60;31.27;100689.28;5020938;28;20107;-68
2022/06/25 10:06:42;;;;;;;7.88;2.90;;;;;;;35.61;32.15;100688.25;5035327;28;20760;-68
2022/06/25 10:09:12;;;;;;;6.20;2.97;;;;;;;36.43;29.17;100696.75;5024142;28;20053;-68
2022/06/25 10:11:38;;;;;;;4.95;2.58;;;;;;;36.61;30.21;100686.66;5027896;28;20081;-68
2022/06/25 10:14:05;;;;;;;3.67;2.85;;;;;;;36.77;30.23;100683.06;5027801;28;20042;-68
2022/06/25 10:16:33;;;;;;;3.40;2.90;;;;;;;35.63;29.57;100686.09;5025609;28;20049;-69
2022/06/25 10:19:01;;;;;;;8.27;2.90;;;;;;;34.45;30.77;100684.84;5027137;28;20077;-68
2022/06/25 10:21:28;;;;;;;4.47;2.83;;;;;;;34.18;31.17;100693.47;5028331;28;20049;-68
2022/06/25 10:23:57;;;;;;;6.32;2.58;;;;;;;33.57;33.09;100690.19;5024968;28;20475;-68
2022/06/25 10:26:25;;;;;;;4.60;2.78;;;;;;;33.09;34.84;100687.44;5027530;28;20042;-68
2022/06/25 10:28:52;;;;;;;3.83;2.60;;;;;;;32.89;34.48;100681.41;5027151;28;20115;-68
2022/06/25 10:31:19;;;;;;;4.50;3.22;;;;;;;32.88;32.73;100682.47;5025894;28;20096;-68
2022/06/25 10:33:54;;;;;;;3.05;2.42;;;;;;;33.44;32.80;100682.22;5027030;28;20046;-68
2022/06/25 10:36:39;;;;;;;4.47;2.55;;;;;;;33.99;31.28;100686.44;5025823;28;20413;-68
2022/06/25 10:39:36;;;;;;;3.90;2.47;;;;;;;34.35;30.26;100681.91;5025388;28;20418;-68
2022/06/25 10:45:50;;;;;;;8.20;2.75;;;;;;;35.04;30.20;100672.84;5007612;28;20136;-68
2022/06/25 10:48:19;;;;;;;4.63;2.65;;;;;;;34.80;30.99;100674.81;5020438;28;20103;-68
2022/06/25 10:50:50;;;;;;;5.18;2.47;;;;;;;35.11;31.10;100673.53;5041982;28;20060;-68
2022/06/25 10:53:18;;;;;;;5.18;2.83;;;;;;;35.85;32.14;100669.00;5044302;28;20107;-68
2022/06/25 10:56:23;;;;;;;4.45;2.80;;;;;;;36.57;30.56;100672.69;5046607;28;20102;-68
2022/06/25 10:58:52;;;;;;;3.85;2.60;;;;;;;36.40;27.03;100669.94;5039705;28;20040;-68
2022/06/25 11:01:28;;;;;;;7.72;2.47;;;;;;;35.45;28.46;100675.34;5014537;28;20045;-68
2022/06/25 11:03:58;;;;;;;3.78;2.38;;;;;;;35.56;28.50;100677.19;5019526;28;20104;-68
2022/06/25 11:06:29;;;;;;;2.58;2.30;;;;;;;35.76;27.79;100675.94;5033058;28;20509;-68
2022/06/25 11:08:55;;;;;;;6.55;2.53;;;;;;;36.00;28.50;100671.97;5006874;28;20125;-68
2022/06/25 11:11:30;;;;;;;3.40;2.45;;;;;;;36.35;26.90;100674.50;5027182;28;20061;-69
2022/06/25 11:14:00;;;;;;;4.03;2.30;;;;;;;36.06;28.37;100666.38;5026687;28;20045;-68
2022/06/25 11:16:27;;;;;;;5.75;2.50;;;;;;;35.55;29.04;100664.63;5030774;28;20324;-68
2022/06/25 11:18:54;;;;;;;6.00;2.70;;;;;;;35.16;27.10;100663.63;5025362;28;20132;-68
2022/06/25 11:21:28;;;;;;;3.60;2.17;;;;;;;35.32;27.50;100659.28;5026065;28;20050;-68
2022/06/25 11:24:15;;;;;;;2.70;1.98;;;;;;;35.25;28.05;100663.22;5026134;28;20053;-68
2022/06/25 11:29:31;;;;;;;4.13;2.00;;;;;;;34.96;25.91;100657.69;5023492;28;20115;-67
2022/06/25 11:31:58;;;;;;;2.92;2.00;;;;;;;35.53;27.77;100668.69;5027038;28;20044;-68
2022/06/25 11:34:26;;;;;;;3.67;2.15;;;;;;;35.77;27.68;100663.97;5029349;28;20167;-67
2022/06/25 11:37:01;;;;;;;4.10;2.30;;;;;;;36.15;27.83;100669.53;5032309;28;20090;-67
2022/06/25 11:39:28;;;;;;;3.20;2.03;;;;;;;35.92;26.63;100665.03;5023546;28;20045;-67
2022/06/25 11:41:55;;;;;;;3.05;2.08;;;;;;;36.24;26.76;100665.34;5024581;28;20563;-67